createdAt,value
2019-06-01T00:00:39.987Z,18.08
2019-06-01T00:05:44.583Z,17.96
2019-06-01T00:10:49.542Z,17.93
2019-06-01T00:15:53.934Z,17.96
2019-06-01T00:20:58.150Z,17.94
2019-06-01T00:26:02.370Z,17.84
2019-06-01T00:31:06.640Z,17.77
2019-06-01T00:36:10.886Z,17.76
2019-06-01T00:41:15.114Z,17.77
2019-06-01T00:46:19.342Z,17.72
2019-06-01T00:51:23.533Z,17.68
2019-06-01T00:56:27.761Z,17.66
2019-06-01T01:01:31.987Z,17.63
2019-06-01T01:06:36.201Z,17.62
2019-06-01T01:11:40.480Z,17.62
2019-06-01T01:16:45.498Z,17.60
2019-06-01T01:21:52.149Z,17.50
2019-06-01T01:26:56.793Z,17.54
2019-06-01T01:32:01.127Z,17.48
2019-06-01T01:37:05.362Z,17.46
2019-06-01T01:42:09.580Z,17.44
2019-06-01T01:47:14.407Z,17.41
2019-06-01T01:52:18.733Z,17.41
2019-06-01T01:57:22.965Z,17.29
2019-06-01T02:02:27.163Z,17.39
2019-06-01T02:07:31.366Z,17.36
2019-06-01T02:12:35.617Z,17.39
2019-06-01T02:17:39.826Z,17.26
2019-06-01T02:22:44.034Z,17.24
2019-06-01T02:27:48.244Z,17.18
2019-06-01T02:32:53.816Z,17.14
2019-06-01T02:37:58.645Z,17.10
2019-06-01T02:43:04.245Z,17.09
2019-06-01T02:48:09.106Z,17.09
2019-06-01T02:53:13.326Z,17.09
2019-06-01T02:58:17.548Z,17.08
2019-06-01T03:03:21.958Z,17.01
2019-06-01T03:08:26.848Z,16.98
2019-06-01T03:13:33.780Z,17.01
2019-06-01T03:18:39.842Z,16.91
2019-06-01T03:23:46.562Z,16.77
2019-06-01T03:28:53.649Z,16.83
2019-06-01T03:33:57.881Z,16.90
2019-06-01T03:39:03.971Z,16.90
2019-06-01T03:44:08.556Z,16.84
2019-06-01T03:49:12.715Z,16.76
2019-06-01T03:54:16.932Z,16.74
2019-06-01T03:59:21.234Z,16.54
2019-06-01T04:04:25.450Z,16.54
2019-06-01T04:09:29.652Z,16.60
2019-06-01T04:14:33.893Z,16.61
2019-06-01T04:19:38.098Z,16.58
2019-06-01T04:24:42.320Z,16.53
2019-06-01T04:29:46.511Z,16.60
2019-06-01T04:34:50.713Z,16.60
2019-06-01T04:39:54.922Z,16.53
2019-06-01T04:44:59.124Z,16.76
2019-06-01T04:50:04.540Z,16.89
2019-06-01T04:55:09.111Z,17.05
2019-06-01T05:00:25.985Z,17.27
2019-06-01T05:05:20.250Z,17.45
2019-06-01T05:10:24.457Z,17.52
2019-06-01T05:15:28.687Z,17.66
2019-06-01T05:20:32.900Z,17.77
2019-06-01T05:25:37.116Z,18.11
2019-06-01T05:30:41.324Z,18.17
2019-06-01T05:35:45.528Z,18.36
2019-06-01T05:40:49.754Z,18.69
2019-06-01T05:45:53.972Z,18.92
2019-06-01T05:50:58.182Z,18.91
2019-06-01T05:56:02.415Z,18.83
2019-06-01T06:01:06.618Z,18.97
2019-06-01T06:06:11.683Z,19.15
2019-06-01T06:11:16.973Z,19.10
2019-06-01T06:16:22.594Z,19.38
2019-06-01T06:21:26.761Z,19.38
2019-06-01T06:26:31.004Z,19.32
2019-06-01T06:31:35.221Z,19.31
2019-06-01T06:36:39.434Z,19.31
2019-06-01T06:41:43.649Z,19.19
2019-06-01T06:46:47.876Z,19.83
2019-06-01T06:51:52.070Z,19.83
2019-06-01T06:56:56.286Z,19.91
2019-06-01T07:02:00.528Z,20.06
2019-06-01T07:07:04.708Z,19.91
2019-06-01T07:12:08.944Z,20.28
2019-06-01T07:17:15.637Z,20.79
2019-06-01T07:22:19.749Z,20.98
2019-06-01T07:27:24.177Z,20.97
2019-06-01T07:32:28.722Z,21.16
2019-06-01T07:37:33.121Z,21.48
2019-06-01T07:42:37.331Z,21.76
2019-06-01T07:47:41.536Z,21.82
2019-06-01T07:52:45.732Z,21.64
2019-06-01T07:57:49.953Z,21.81
2019-06-01T08:02:54.146Z,21.68
2019-06-01T08:07:58.353Z,22.08
2019-06-01T08:13:02.612Z,22.37
2019-06-01T08:18:06.913Z,22.35
2019-06-01T08:23:11.115Z,22.57
2019-06-01T08:28:15.330Z,22.74
2019-06-01T08:33:19.506Z,22.54
2019-06-01T08:38:23.718Z,22.55
2019-06-01T08:43:27.947Z,22.20
2019-06-01T08:48:32.146Z,22.72
2019-06-01T08:53:36.406Z,22.79
2019-06-01T08:58:40.599Z,22.66
2019-06-01T09:03:46.800Z,22.67
2019-06-01T09:08:50.772Z,22.82
2019-06-01T09:13:55.006Z,22.68
2019-06-01T09:18:59.219Z,22.96
2019-06-01T09:24:03.423Z,23.00
2019-06-01T09:29:07.636Z,23.10
2019-06-01T09:34:11.854Z,23.01
2019-06-01T09:39:16.075Z,23.06
2019-06-01T09:44:20.325Z,23.56
2019-06-01T09:49:24.519Z,23.50
2019-06-01T09:54:29.412Z,23.41
2019-06-01T09:59:34.642Z,23.21
2019-06-01T10:04:39.605Z,23.33
2019-06-01T10:09:43.854Z,23.21
2019-06-01T10:14:48.068Z,23.41
2019-06-01T10:19:52.272Z,24.01
2019-06-01T10:24:56.492Z,24.01
2019-06-01T10:30:00.752Z,24.13
2019-06-01T10:35:05.845Z,24.36
2019-06-01T10:40:11.651Z,24.59
2019-06-01T10:45:16.852Z,24.51
2019-06-01T10:50:21.069Z,24.82
2019-06-01T10:55:25.259Z,24.92
2019-06-01T11:00:39.658Z,25.15
2019-06-01T11:05:36.750Z,25.63
2019-06-01T11:10:41.040Z,25.12
2019-06-01T11:15:45.178Z,25.46
2019-06-01T11:20:49.377Z,25.47
2019-06-01T11:25:53.582Z,25.87
2019-06-01T11:30:57.767Z,26.52
2019-06-01T11:36:01.970Z,27.31
2019-06-01T11:41:06.176Z,27.76
2019-06-01T11:46:10.381Z,27.75
2019-06-01T11:51:14.596Z,27.24
2019-06-01T11:56:18.826Z,27.35
2019-06-01T12:01:23.155Z,28.47
2019-06-01T12:06:27.337Z,29.14
2019-06-01T12:11:31.543Z,29.90
2019-06-01T12:16:36.387Z,28.07
2019-06-01T12:21:40.950Z,28.52
2019-06-01T12:26:45.546Z,28.33
2019-06-01T12:31:49.845Z,29.53
2019-06-01T12:36:54.283Z,29.22
2019-06-01T12:41:58.491Z,29.50
2019-06-01T12:47:02.696Z,29.73
2019-06-01T12:52:06.936Z,30.83
2019-06-01T12:57:11.278Z,29.27
2019-06-01T13:02:15.442Z,29.30
2019-06-01T13:07:19.653Z,30.66
2019-06-01T13:12:23.838Z,30.63
2019-06-01T13:17:28.036Z,31.70
2019-06-01T13:22:32.246Z,31.19
2019-06-01T13:27:38.588Z,29.08
2019-06-01T13:32:42.553Z,30.87
2019-06-01T13:37:46.868Z,31.15
2019-06-01T13:42:51.326Z,32.53
2019-06-01T13:47:55.616Z,30.67
2019-06-01T13:52:59.821Z,31.98
2019-06-01T13:58:04.019Z,30.29
2019-06-01T14:03:08.220Z,29.03
2019-06-01T14:08:27.845Z,30.93
2019-06-01T14:13:18.509Z,31.53
2019-06-01T14:18:22.715Z,32.37
2019-06-01T14:23:26.899Z,30.54
2019-06-01T14:28:31.092Z,30.94
2019-06-01T14:33:35.287Z,32.02
2019-06-01T14:38:46.823Z,31.55
2019-06-01T14:43:45.440Z,32.84
2019-06-01T14:48:51.583Z,33.26
2019-06-01T14:53:55.850Z,33.91
2019-06-01T14:59:02.034Z,32.27
2019-06-01T15:04:06.035Z,31.39
2019-06-01T15:09:18.303Z,32.91
2019-06-01T15:14:16.305Z,33.34
2019-06-01T15:19:20.497Z,33.29
2019-06-01T15:24:24.933Z,32.86
2019-06-01T15:29:29.145Z,31.19
2019-06-01T15:34:33.422Z,31.72
2019-06-01T15:39:37.617Z,32.30
2019-06-01T15:44:41.815Z,31.57
2019-06-01T15:49:46.006Z,32.27
2019-06-01T15:54:50.225Z,31.83
2019-06-01T15:59:54.601Z,31.23
2019-06-01T16:04:59.285Z,32.97
2019-06-01T16:10:06.475Z,31.99
2019-06-01T16:15:10.192Z,31.11
2019-06-01T16:20:14.600Z,31.62
2019-06-01T16:25:18.822Z,32.82
2019-06-01T16:30:23.025Z,32.86
2019-06-01T16:35:27.242Z,32.62
2019-06-01T16:40:31.441Z,33.23
2019-06-01T16:45:35.680Z,33.40
2019-06-01T16:50:39.871Z,32.32
2019-06-01T16:55:44.055Z,31.11
2019-06-01T17:00:48.273Z,29.62
2019-06-01T17:05:52.452Z,28.84
2019-06-01T17:10:56.742Z,29.33
2019-06-01T17:16:03.026Z,28.77
2019-06-01T17:21:07.628Z,28.27
2019-06-01T17:26:11.867Z,27.94
2019-06-01T17:31:16.074Z,27.72
2019-06-01T17:36:20.729Z,27.97
2019-06-01T17:41:24.905Z,27.55
2019-06-01T17:46:29.122Z,27.64
2019-06-01T17:51:33.344Z,27.66
2019-06-01T17:56:37.541Z,27.50
2019-06-01T18:01:42.738Z,27.35
2019-06-01T18:06:47.064Z,27.44
2019-06-01T18:11:51.245Z,27.50
2019-06-01T18:16:55.469Z,27.08
2019-06-01T18:21:59.676Z,27.09
2019-06-01T18:27:04.829Z,27.12
2019-06-01T18:32:09.518Z,26.76
2019-06-01T18:37:13.806Z,26.78
2019-06-01T18:42:18.963Z,26.56
2019-06-01T18:47:32.217Z,26.48
2019-06-01T18:52:29.052Z,26.29
2019-06-01T18:57:34.455Z,26.21
2019-06-01T19:02:38.666Z,26.03
2019-06-01T19:07:42.898Z,25.95
2019-06-01T19:12:47.133Z,25.89
2019-06-01T19:17:51.674Z,25.73
2019-06-01T19:22:55.897Z,25.67
2019-06-01T19:28:00.118Z,25.48
2019-06-01T19:33:04.796Z,25.42
2019-06-01T19:38:09.472Z,25.14
2019-06-01T19:43:13.692Z,25.17
2019-06-01T19:48:18.869Z,25.11
2019-06-01T19:53:23.309Z,25.04
2019-06-01T19:58:27.542Z,25.06
2019-06-01T20:03:31.852Z,25.00
2019-06-01T20:08:36.073Z,24.99
2019-06-01T20:13:40.301Z,24.79
2019-06-01T20:18:44.574Z,24.84
2019-06-01T20:23:48.918Z,24.80
2019-06-01T20:28:53.130Z,24.71
2019-06-01T20:33:58.063Z,24.58
2019-06-01T20:39:04.163Z,24.51
2019-06-01T20:44:08.308Z,24.45
2019-06-01T20:49:12.765Z,24.23
2019-06-01T20:54:16.975Z,24.12
2019-06-01T20:59:22.937Z,24.17
2019-06-01T21:04:27.266Z,24.12
2019-06-01T21:09:31.489Z,24.09
2019-06-01T21:14:36.957Z,23.99
2019-06-01T21:19:41.494Z,23.77
2019-06-01T21:24:45.680Z,23.59
2019-06-01T21:29:50.092Z,23.61
2019-06-01T21:34:54.296Z,23.56
2019-06-01T21:39:58.534Z,23.40
2019-06-01T21:45:02.750Z,23.43
2019-06-01T21:50:07.384Z,23.27
2019-06-01T21:55:11.563Z,23.13
2019-06-01T22:00:22.626Z,22.94
2019-06-01T22:05:27.336Z,22.88
2019-06-01T22:10:31.669Z,22.82
2019-06-01T22:15:35.885Z,22.57
2019-06-01T22:20:40.118Z,22.46
2019-06-01T22:25:44.318Z,22.40
2019-06-01T22:30:48.528Z,22.21
2019-06-01T22:35:52.721Z,22.06
2019-06-01T22:40:56.941Z,21.93
2019-06-01T22:46:01.158Z,21.76
2019-06-01T22:51:05.663Z,21.64
2019-06-01T22:56:09.883Z,21.45
2019-06-01T23:01:14.111Z,21.32
2019-06-01T23:06:18.327Z,21.19
2019-06-01T23:11:25.333Z,21.16
2019-06-01T23:16:29.810Z,21.09
2019-06-01T23:21:34.139Z,20.92
2019-06-01T23:26:38.327Z,20.75
2019-06-01T23:31:42.531Z,20.69
2019-06-01T23:36:46.754Z,20.56
2019-06-01T23:41:50.944Z,20.44
2019-06-01T23:46:55.150Z,20.34
2019-06-01T23:51:59.392Z,20.22
2019-06-01T23:57:03.652Z,20.15
